KBAB/BAB METAR and TAF weather

Enter ICAO airport designator
Station Type Date Time Source
KBAB METAR 2021/09/16 10:58 UTC NOAA

KBAB 161058Z AUTO 20004KT 10SM CLR 14/08 A2979 RMK AO2 SLP090 T01360084 $


Station Type Date Time Source
KBAB Decoded METAR 2021/09/16 10:58 UTC NOAA

Marysville, Beale Air Force Base, CA, United States (KBAB) 39-08N 121-26W
Sep 16, 2021 - 06:58 AM EDT / 2021.09.16 1058 UTC
Wind: from the SSW (200 degrees) at 5 MPH (4 KT):0
Visibility: 10 mile(s):0
Sky conditions: clear
Temperature: 56.5 F (13.6 C)
Dew Point: 47.1 F (8.4 C)
Relative Humidity: 70%
Pressure (altimeter): 29.79 in. Hg (1008 hPa)
ob: KBAB 161058Z AUTO 20004KT 10SM CLR 14/08 A2979 RMK AO2 SLP090 T01360084
cycle: 11

Station Type Date Time Source
KBAB TAF 2021/09/16 11:03 UTC NOAA

TAF TAF KBAB 161100Z 1611/1717 VRB06KT 9999 SKC QNH2980INS
BECMG 1617/1618 20009KT 9999 SKC QNH2976INS
BECMG 1703/1704 14009KT 9999 SKC QNH2977INS
BECMG 1710/1711 VRB06KT 9999 SKC QNH2985INS TX28/1623Z TN13/1614Z

Example: see airport list